sensor_id;sensor_type;location;lat;lon;timestamp;P1;durP1;ratioP1;P2;durP2;ratioP2
1026;SDS011;502;48.746;9.214;2023-04-24T00:02:18;1.47;;;1.13;;
1026;SDS011;502;48.746;9.214;2023-04-24T00:04:46;1.77;;;1.03;;
1026;SDS011;502;48.746;9.214;2023-04-24T00:07:14;1.37;;;1.10;;
1026;SDS011;502;48.746;9.214;2023-04-24T00:09:41;1.80;;;1.00;;
1026;SDS011;502;48.746;9.214;2023-04-24T00:12:08;3.53;;;1.50;;
1026;SDS011;502;48.746;9.214;2023-04-24T00:14:35;2.10;;;1.10;;
1026;SDS011;502;48.746;9.214;2023-04-24T00:17:01;1.50;;;1.07;;
1026;SDS011;502;48.746;9.214;2023-04-24T00:19:28;1.50;;;1.20;;
1026;SDS011;502;48.746;9.214;2023-04-24T00:21:56;2.83;;;1.60;;
1026;SDS011;502;48.746;9.214;2023-04-24T00:24:23;1.97;;;1.17;;
1026;SDS011;502;48.746;9.214;2023-04-24T00:26:49;1.90;;;1.00;;
1026;SDS011;502;48.746;9.214;2023-04-24T00:29:16;1.40;;;1.10;;
1026;SDS011;502;48.746;9.214;2023-04-24T00:31:42;2.13;;;1.40;;
1026;SDS011;502;48.746;9.214;2023-04-24T00:34:09;1.57;;;1.20;;
1026;SDS011;502;48.746;9.214;2023-04-24T00:36:36;2.70;;;1.10;;
1026;SDS011;502;48.746;9.214;2023-04-24T00:39:04;3.80;;;1.10;;
1026;SDS011;502;48.746;9.214;2023-04-24T00:41:33;2.10;;;1.03;;
1026;SDS011;502;48.746;9.214;2023-04-24T00:44:00;2.10;;;1.23;;
1026;SDS011;502;48.746;9.214;2023-04-24T00:46:28;1.70;;;1.17;;
1026;SDS011;502;48.746;9.214;2023-04-24T00:48:55;1.40;;;1.07;;
1026;SDS011;502;48.746;9.214;2023-04-24T00:51:22;1.67;;;0.87;;
1026;SDS011;502;48.746;9.214;2023-04-24T00:53:50;2.00;;;1.13;;
1026;SDS011;502;48.746;9.214;2023-04-24T00:56:18;7.37;;;3.37;;
1026;SDS011;502;48.746;9.214;2023-04-24T00:58:45;3.17;;;1.20;;
1026;SDS011;502;48.746;9.214;2023-04-24T01:01:12;2.13;;;0.97;;
1026;SDS011;502;48.746;9.214;2023-04-24T01:03:39;1.57;;;1.00;;
1026;SDS011;502;48.746;9.214;2023-04-24T01:06:06;1.40;;;0.90;;
1026;SDS011;502;48.746;9.214;2023-04-24T01:08:33;1.77;;;1.27;;
1026;SDS011;502;48.746;9.214;2023-04-24T01:11:03;1.30;;;1.00;;
1026;SDS011;502;48.746;9.214;2023-04-24T01:13:32;1.57;;;1.00;;
1026;SDS011;502;48.746;9.214;2023-04-24T01:15:59;1.20;;;0.83;;
1026;SDS011;502;48.746;9.214;2023-04-24T01:18:26;2.30;;;1.10;;
1026;SDS011;502;48.746;9.214;2023-04-24T01:20:53;1.17;;;1.00;;
1026;SDS011;502;48.746;9.214;2023-04-24T01:23:24;3.93;;;1.37;;
1026;SDS011;502;48.746;9.214;2023-04-24T01:25:50;1.50;;;1.20;;
1026;SDS011;502;48.746;9.214;2023-04-24T01:28:17;1.57;;;1.27;;
1026;SDS011;502;48.746;9.214;2023-04-24T01:30:44;2.20;;;1.40;;
1026;SDS011;502;48.746;9.214;2023-04-24T01:33:13;1.90;;;1.07;;
1026;SDS011;502;48.746;9.214;2023-04-24T01:35:40;2.63;;;1.30;;
1026;SDS011;502;48.746;9.214;2023-04-24T01:38:07;2.10;;;1.10;;
1026;SDS011;502;48.746;9.214;2023-04-24T01:40:36;1.47;;;1.10;;
1026;SDS011;502;48.746;9.214;2023-04-24T01:43:03;1.37;;;1.20;;
1026;SDS011;502;48.746;9.214;2023-04-24T01:45:29;1.40;;;1.00;;
1026;SDS011;502;48.746;9.214;2023-04-24T01:47:56;1.60;;;1.20;;
1026;SDS011;502;48.746;9.214;2023-04-24T01:50:23;1.33;;;0.77;;
1026;SDS011;502;48.746;9.214;2023-04-24T01:52:49;3.10;;;0.90;;
1026;SDS011;502;48.746;9.214;2023-04-24T01:55:16;3.03;;;1.23;;
1026;SDS011;502;48.746;9.214;2023-04-24T01:57:45;1.13;;;0.70;;
1026;SDS011;502;48.746;9.214;2023-04-24T02:00:12;1.60;;;1.00;;
1026;SDS011;502;48.746;9.214;2023-04-24T02:02:39;2.20;;;1.00;;
1026;SDS011;502;48.746;9.214;2023-04-24T02:05:07;1.47;;;0.90;;
1026;SDS011;502;48.746;9.214;2023-04-24T02:07:37;1.70;;;1.13;;
1026;SDS011;502;48.746;9.214;2023-04-24T02:10:05;2.50;;;1.10;;
1026;SDS011;502;48.746;9.214;2023-04-24T02:12:32;1.27;;;1.10;;
1026;SDS011;502;48.746;9.214;2023-04-24T02:15:00;1.50;;;1.17;;
1026;SDS011;502;48.746;9.214;2023-04-24T02:17:28;1.50;;;1.17;;
1026;SDS011;502;48.746;9.214;2023-04-24T02:19:56;1.60;;;1.00;;
1026;SDS011;502;48.746;9.214;2023-04-24T02:22:22;1.33;;;0.90;;
1026;SDS011;502;48.746;9.214;2023-04-24T02:24:49;1.30;;;0.80;;
1026;SDS011;502;48.746;9.214;2023-04-24T02:27:15;2.10;;;1.00;;
1026;SDS011;502;48.746;9.214;2023-04-24T02:29:42;1.67;;;1.00;;
1026;SDS011;502;48.746;9.214;2023-04-24T02:32:10;1.67;;;0.93;;
1026;SDS011;502;48.746;9.214;2023-04-24T02:34:37;1.23;;;1.03;;
1026;SDS011;502;48.746;9.214;2023-04-24T02:37:04;2.83;;;1.33;;
1026;SDS011;502;48.746;9.214;2023-04-24T02:39:30;4.90;;;1.00;;
1026;SDS011;502;48.746;9.214;2023-04-24T02:41:57;1.47;;;0.83;;
1026;SDS011;502;48.746;9.214;2023-04-24T02:44:24;1.50;;;1.10;;
1026;SDS011;502;48.746;9.214;2023-04-24T02:46:50;1.87;;;1.07;;
1026;SDS011;502;48.746;9.214;2023-04-24T02:49:18;2.20;;;1.00;;
1026;SDS011;502;48.746;9.214;2023-04-24T02:51:45;3.10;;;1.23;;
1026;SDS011;502;48.746;9.214;2023-04-24T02:54:12;1.60;;;0.93;;
1026;SDS011;502;48.746;9.214;2023-04-24T02:56:39;1.97;;;0.97;;
1026;SDS011;502;48.746;9.214;2023-04-24T02:59:06;1.40;;;0.80;;
1026;SDS011;502;48.746;9.214;2023-04-24T03:01:33;1.47;;;0.97;;
1026;SDS011;502;48.746;9.214;2023-04-24T03:04:00;1.40;;;1.20;;
1026;SDS011;502;48.746;9.214;2023-04-24T03:06:28;1.67;;;0.90;;
1026;SDS011;502;48.746;9.214;2023-04-24T03:08:56;1.20;;;0.83;;
1026;SDS011;502;48.746;9.214;2023-04-24T03:11:24;1.40;;;1.17;;
1026;SDS011;502;48.746;9.214;2023-04-24T03:13:51;1.77;;;1.30;;
1026;SDS011;502;48.746;9.214;2023-04-24T03:16:18;1.43;;;0.90;;
1026;SDS011;502;48.746;9.214;2023-04-24T03:18:45;1.30;;;0.87;;
1026;SDS011;502;48.746;9.214;2023-04-24T03:21:12;1.20;;;0.80;;
1026;SDS011;502;48.746;9.214;2023-04-24T03:23:41;1.87;;;1.00;;
1026;SDS011;502;48.746;9.214;2023-04-24T03:26:09;1.70;;;1.30;;
1026;SDS011;502;48.746;9.214;2023-04-24T03:28:40;2.03;;;1.10;;
1026;SDS011;502;48.746;9.214;2023-04-24T03:31:06;3.00;;;1.17;;
1026;SDS011;502;48.746;9.214;2023-04-24T03:33:35;2.10;;;1.10;;
1026;SDS011;502;48.746;9.214;2023-04-24T03:36:02;1.37;;;1.00;;
1026;SDS011;502;48.746;9.214;2023-04-24T03:38:38;1.30;;;1.00;;
1026;SDS011;502;48.746;9.214;2023-04-24T03:41:20;2.27;;;0.93;;
1026;SDS011;502;48.746;9.214;2023-04-24T03:44:00;1.20;;;0.70;;
1026;SDS011;502;48.746;9.214;2023-04-24T03:46:27;1.47;;;1.07;;
1026;SDS011;502;48.746;9.214;2023-04-24T03:48:57;1.40;;;0.90;;
1026;SDS011;502;48.746;9.214;2023-04-24T03:51:28;1.47;;;1.00;;
1026;SDS011;502;48.746;9.214;2023-04-24T03:54:01;1.60;;;1.00;;
1026;SDS011;502;48.746;9.214;2023-04-24T03:56:31;2.30;;;1.43;;
1026;SDS011;502;48.746;9.214;2023-04-24T03:58:58;1.37;;;0.90;;
1026;SDS011;502;48.746;9.214;2023-04-24T04:01:25;1.40;;;0.77;;
1026;SDS011;502;48.746;9.214;2023-04-24T04:04:00;1.10;;;0.70;;
1026;SDS011;502;48.746;9.214;2023-04-24T04:06:28;1.70;;;1.27;;
1026;SDS011;502;48.746;9.214;2023-04-24T04:08:57;1.40;;;0.90;;
1026;SDS011;502;48.746;9.214;2023-04-24T04:11:24;3.93;;;1.03;;
1026;SDS011;502;48.746;9.214;2023-04-24T04:13:53;1.23;;;1.00;;
1026;SDS011;502;48.746;9.214;2023-04-24T04:16:21;1.67;;;1.00;;
1026;SDS011;502;48.746;9.214;2023-04-24T04:18:50;1.30;;;0.93;;
1026;SDS011;502;48.746;9.214;2023-04-24T04:21:16;2.87;;;1.13;;
1026;SDS011;502;48.746;9.214;2023-04-24T04:23:43;1.20;;;0.80;;
1026;SDS011;502;48.746;9.214;2023-04-24T04:26:17;1.00;;;0.90;;
1026;SDS011;502;48.746;9.214;2023-04-24T04:29:06;1.60;;;1.00;;
1026;SDS011;502;48.746;9.214;2023-04-24T04:31:37;2.43;;;0.77;;
1026;SDS011;502;48.746;9.214;2023-04-24T04:34:08;1.10;;;0.73;;
1026;SDS011;502;48.746;9.214;2023-04-24T04:36:37;1.70;;;1.10;;
1026;SDS011;502;48.746;9.214;2023-04-24T04:39:28;4.43;;;1.50;;
1026;SDS011;502;48.746;9.214;2023-04-24T04:41:59;1.60;;;1.43;;
1026;SDS011;502;48.746;9.214;2023-04-24T04:44:34;2.00;;;1.50;;
1026;SDS011;502;48.746;9.214;2023-04-24T04:47:02;1.57;;;1.00;;
1026;SDS011;502;48.746;9.214;2023-04-24T04:49:32;1.73;;;1.10;;
1026;SDS011;502;48.746;9.214;2023-04-24T04:52:00;1.80;;;1.27;;
1026;SDS011;502;48.746;9.214;2023-04-24T04:54:27;1.90;;;1.43;;
1026;SDS011;502;48.746;9.214;2023-04-24T04:56:55;2.80;;;1.60;;
1026;SDS011;502;48.746;9.214;2023-04-24T04:59:23;2.23;;;1.70;;
1026;SDS011;502;48.746;9.214;2023-04-24T05:01:56;2.30;;;1.90;;
1026;SDS011;502;48.746;9.214;2023-04-24T05:04:23;2.13;;;1.53;;
1026;SDS011;502;48.746;9.214;2023-04-24T05:06:50;1.90;;;1.70;;
1026;SDS011;502;48.746;9.214;2023-04-24T05:09:17;2.50;;;1.70;;
1026;SDS011;502;48.746;9.214;2023-04-24T05:11:56;4.63;;;1.90;;
1026;SDS011;502;48.746;9.214;2023-04-24T05:14:24;1.77;;;1.23;;
1026;SDS011;502;48.746;9.214;2023-04-24T05:16:51;2.00;;;1.57;;
1026;SDS011;502;48.746;9.214;2023-04-24T05:19:21;1.77;;;1.57;;
1026;SDS011;502;48.746;9.214;2023-04-24T05:21:48;2.17;;;1.63;;
1026;SDS011;502;48.746;9.214;2023-04-24T05:24:14;1.97;;;1.77;;
1026;SDS011;502;48.746;9.214;2023-04-24T05:26:47;2.63;;;1.77;;
1026;SDS011;502;48.746;9.214;2023-04-24T05:29:17;2.63;;;1.80;;
1026;SDS011;502;48.746;9.214;2023-04-24T05:31:44;3.47;;;1.90;;
1026;SDS011;502;48.746;9.214;2023-04-24T05:34:11;2.40;;;1.63;;
1026;SDS011;502;48.746;9.214;2023-04-24T05:36:42;2.93;;;1.87;;
1026;SDS011;502;48.746;9.214;2023-04-24T05:39:09;2.57;;;1.73;;
1026;SDS011;502;48.746;9.214;2023-04-24T05:41:35;1.93;;;1.70;;
1026;SDS011;502;48.746;9.214;2023-04-24T05:44:02;2.13;;;1.80;;
1026;SDS011;502;48.746;9.214;2023-04-24T05:46:28;2.30;;;2.07;;
1026;SDS011;502;48.746;9.214;2023-04-24T05:48:55;2.70;;;1.97;;
1026;SDS011;502;48.746;9.214;2023-04-24T05:51:22;2.67;;;2.47;;
1026;SDS011;502;48.746;9.214;2023-04-24T05:53:50;3.33;;;2.37;;
1026;SDS011;502;48.746;9.214;2023-04-24T05:56:17;2.43;;;2.13;;
1026;SDS011;502;48.746;9.214;2023-04-24T05:58:44;3.17;;;2.50;;
1026;SDS011;502;48.746;9.214;2023-04-24T06:01:11;3.03;;;1.87;;
1026;SDS011;502;48.746;9.214;2023-04-24T06:03:40;2.53;;;2.27;;
1026;SDS011;502;48.746;9.214;2023-04-24T06:06:07;2.33;;;1.90;;
1026;SDS011;502;48.746;9.214;2023-04-24T06:08:35;2.90;;;2.57;;
1026;SDS011;502;48.746;9.214;2023-04-24T06:11:03;3.03;;;2.40;;
1026;SDS011;502;48.746;9.214;2023-04-24T06:13:30;2.43;;;2.20;;
1026;SDS011;502;48.746;9.214;2023-04-24T06:16:15;3.10;;;2.27;;
1026;SDS011;502;48.746;9.214;2023-04-24T06:18:47;3.73;;;2.40;;
1026;SDS011;502;48.746;9.214;2023-04-24T06:21:16;3.40;;;2.30;;
1026;SDS011;502;48.746;9.214;2023-04-24T06:23:43;3.30;;;2.40;;
1026;SDS011;502;48.746;9.214;2023-04-24T06:26:12;4.80;;;2.57;;
1026;SDS011;502;48.746;9.214;2023-04-24T06:28:40;3.70;;;2.60;;
1026;SDS011;502;48.746;9.214;2023-04-24T06:31:06;4.93;;;2.57;;
1026;SDS011;502;48.746;9.214;2023-04-24T06:33:33;3.33;;;2.97;;
1026;SDS011;502;48.746;9.214;2023-04-24T06:35:59;2.80;;;2.50;;
1026;SDS011;502;48.746;9.214;2023-04-24T06:38:26;3.20;;;2.10;;
1026;SDS011;502;48.746;9.214;2023-04-24T06:40:54;2.40;;;2.20;;
1026;SDS011;502;48.746;9.214;2023-04-24T06:43:22;6.03;;;3.00;;
1026;SDS011;502;48.746;9.214;2023-04-24T06:45:49;3.10;;;1.90;;
1026;SDS011;502;48.746;9.214;2023-04-24T06:48:16;3.37;;;1.90;;
1026;SDS011;502;48.746;9.214;2023-04-24T06:50:42;2.70;;;1.93;;
1026;SDS011;502;48.746;9.214;2023-04-24T06:53:09;2.30;;;2.03;;
1026;SDS011;502;48.746;9.214;2023-04-24T06:55:37;2.40;;;2.20;;
1026;SDS011;502;48.746;9.214;2023-04-24T06:58:04;3.70;;;2.40;;
1026;SDS011;502;48.746;9.214;2023-04-24T07:00:32;5.30;;;2.07;;
1026;SDS011;502;48.746;9.214;2023-04-24T07:02:59;2.10;;;1.80;;
1026;SDS011;502;48.746;9.214;2023-04-24T07:05:25;3.10;;;2.50;;
1026;SDS011;502;48.746;9.214;2023-04-24T07:10:57;2.40;;;2.03;;
1026;SDS011;502;48.746;9.214;2023-04-24T07:13:24;2.60;;;2.13;;
1026;SDS011;502;48.746;9.214;2023-04-24T07:15:53;2.87;;;2.63;;
1026;SDS011;502;48.746;9.214;2023-04-24T07:18:20;3.27;;;2.60;;
1026;SDS011;502;48.746;9.214;2023-04-24T07:20:46;2.60;;;2.20;;
1026;SDS011;502;48.746;9.214;2023-04-24T07:23:15;3.10;;;2.17;;
1026;SDS011;502;48.746;9.214;2023-04-24T07:25:41;2.50;;;2.30;;
1026;SDS011;502;48.746;9.214;2023-04-24T07:28:08;3.33;;;2.13;;
1026;SDS011;502;48.746;9.214;2023-04-24T07:30:34;2.83;;;2.37;;
1026;SDS011;502;48.746;9.214;2023-04-24T07:33:02;2.50;;;1.83;;
1026;SDS011;502;48.746;9.214;2023-04-24T07:35:29;2.93;;;2.60;;
1026;SDS011;502;48.746;9.214;2023-04-24T07:37:55;2.37;;;2.17;;
1026;SDS011;502;48.746;9.214;2023-04-24T07:40:22;2.30;;;1.90;;
1026;SDS011;502;48.746;9.214;2023-04-24T07:42:48;2.10;;;1.63;;
1026;SDS011;502;48.746;9.214;2023-04-24T07:45:15;2.30;;;1.70;;
1026;SDS011;502;48.746;9.214;2023-04-24T07:47:42;2.17;;;1.80;;
1026;SDS011;502;48.746;9.214;2023-04-24T07:50:12;2.43;;;1.93;;
1026;SDS011;502;48.746;9.214;2023-04-24T07:52:38;2.30;;;1.77;;
1026;SDS011;502;48.746;9.214;2023-04-24T07:55:05;2.30;;;1.90;;
1026;SDS011;502;48.746;9.214;2023-04-24T07:57:32;2.10;;;1.60;;
1026;SDS011;502;48.746;9.214;2023-04-24T07:59:58;2.43;;;2.07;;
1026;SDS011;502;48.746;9.214;2023-04-24T08:02:25;3.20;;;1.93;;
1026;SDS011;502;48.746;9.214;2023-04-24T08:04:52;2.13;;;1.70;;
1026;SDS011;502;48.746;9.214;2023-04-24T08:10:23;2.00;;;1.60;;
1026;SDS011;502;48.746;9.214;2023-04-24T08:12:50;2.07;;;1.63;;
1026;SDS011;502;48.746;9.214;2023-04-24T08:15:16;2.30;;;1.70;;
1026;SDS011;502;48.746;9.214;2023-04-24T08:17:44;1.90;;;1.50;;
1026;SDS011;502;48.746;9.214;2023-04-24T08:20:11;2.03;;;1.80;;
1026;SDS011;502;48.746;9.214;2023-04-24T08:22:38;1.97;;;1.50;;
1026;SDS011;502;48.746;9.214;2023-04-24T08:25:07;1.93;;;1.57;;
1026;SDS011;502;48.746;9.214;2023-04-24T08:27:34;2.30;;;1.73;;
1026;SDS011;502;48.746;9.214;2023-04-24T08:30:01;3.97;;;1.80;;
1026;SDS011;502;48.746;9.214;2023-04-24T08:32:28;1.80;;;1.60;;
1026;SDS011;502;48.746;9.214;2023-04-24T08:34:55;1.80;;;1.60;;
1026;SDS011;502;48.746;9.214;2023-04-24T08:37:22;2.10;;;1.90;;
1026;SDS011;502;48.746;9.214;2023-04-24T08:39:49;2.63;;;1.83;;
1026;SDS011;502;48.746;9.214;2023-04-24T08:42:17;2.27;;;1.70;;
1026;SDS011;502;48.746;9.214;2023-04-24T08:44:44;2.20;;;2.00;;
1026;SDS011;502;48.746;9.214;2023-04-24T08:47:11;1.80;;;1.30;;
1026;SDS011;502;48.746;9.214;2023-04-24T08:49:38;1.87;;;1.60;;
1026;SDS011;502;48.746;9.214;2023-04-24T08:52:05;1.90;;;1.60;;
1026;SDS011;502;48.746;9.214;2023-04-24T08:54:32;2.30;;;2.00;;
1026;SDS011;502;48.746;9.214;2023-04-24T08:57:00;2.93;;;2.07;;
1026;SDS011;502;48.746;9.214;2023-04-24T08:59:30;2.27;;;2.03;;
1026;SDS011;502;48.746;9.214;2023-04-24T09:01:57;2.00;;;1.80;;
1026;SDS011;502;48.746;9.214;2023-04-24T09:04:24;2.10;;;1.63;;
1026;SDS011;502;48.746;9.214;2023-04-24T09:06:51;2.00;;;1.73;;
1026;SDS011;502;48.746;9.214;2023-04-24T09:09:18;3.00;;;1.73;;
1026;SDS011;502;48.746;9.214;2023-04-24T09:11:45;2.37;;;1.97;;
1026;SDS011;502;48.746;9.214;2023-04-24T09:14:12;2.27;;;1.87;;
1026;SDS011;502;48.746;9.214;2023-04-24T09:16:40;2.30;;;1.80;;
1026;SDS011;502;48.746;9.214;2023-04-24T09:19:07;3.40;;;2.23;;
1026;SDS011;502;48.746;9.214;2023-04-24T09:21:34;2.67;;;1.70;;
1026;SDS011;502;48.746;9.214;2023-04-24T09:24:02;2.40;;;1.53;;
1026;SDS011;502;48.746;9.214;2023-04-24T09:26:29;2.97;;;2.00;;
1026;SDS011;502;48.746;9.214;2023-04-24T09:28:58;2.13;;;1.67;;
1026;SDS011;502;48.746;9.214;2023-04-24T09:31:26;2.93;;;2.27;;
1026;SDS011;502;48.746;9.214;2023-04-24T09:33:55;2.30;;;2.03;;
1026;SDS011;502;48.746;9.214;2023-04-24T09:36:29;1.80;;;1.50;;
1026;SDS011;502;48.746;9.214;2023-04-24T09:38:58;2.27;;;1.80;;
1026;SDS011;502;48.746;9.214;2023-04-24T09:41:25;2.13;;;1.50;;
1026;SDS011;502;48.746;9.214;2023-04-24T09:43:53;5.07;;;2.10;;
1026;SDS011;502;48.746;9.214;2023-04-24T09:46:20;2.40;;;1.93;;
1026;SDS011;502;48.746;9.214;2023-04-24T09:48:47;3.13;;;2.17;;
1026;SDS011;502;48.746;9.214;2023-04-24T09:51:15;2.17;;;1.97;;
1026;SDS011;502;48.746;9.214;2023-04-24T09:53:45;2.27;;;1.60;;
1026;SDS011;502;48.746;9.214;2023-04-24T09:56:14;2.10;;;1.60;;
1026;SDS011;502;48.746;9.214;2023-04-24T09:58:41;2.77;;;1.70;;
1026;SDS011;502;48.746;9.214;2023-04-24T10:01:11;3.40;;;1.37;;
1026;SDS011;502;48.746;9.214;2023-04-24T10:03:38;1.97;;;1.40;;
1026;SDS011;502;48.746;9.214;2023-04-24T10:06:11;5.00;;;1.40;;
1026;SDS011;502;48.746;9.214;2023-04-24T10:08:40;1.50;;;1.40;;
1026;SDS011;502;48.746;9.214;2023-04-24T10:11:07;2.33;;;1.30;;
1026;SDS011;502;48.746;9.214;2023-04-24T10:13:35;2.37;;;1.40;;
1026;SDS011;502;48.746;9.214;2023-04-24T10:16:02;3.93;;;1.40;;
1026;SDS011;502;48.746;9.214;2023-04-24T10:18:29;1.53;;;1.43;;
1026;SDS011;502;48.746;9.214;2023-04-24T10:20:57;1.70;;;1.40;;
1026;SDS011;502;48.746;9.214;2023-04-24T10:23:26;2.57;;;1.80;;
1026;SDS011;502;48.746;9.214;2023-04-24T10:25:54;2.20;;;1.37;;
1026;SDS011;502;48.746;9.214;2023-04-24T10:28:22;1.70;;;1.47;;
1026;SDS011;502;48.746;9.214;2023-04-24T10:30:48;2.30;;;1.47;;
1026;SDS011;502;48.746;9.214;2023-04-24T10:33:15;1.50;;;1.23;;
1026;SDS011;502;48.746;9.214;2023-04-24T10:35:44;2.60;;;1.50;;
1026;SDS011;502;48.746;9.214;2023-04-24T10:38:14;2.20;;;1.57;;
1026;SDS011;502;48.746;9.214;2023-04-24T10:40:43;2.20;;;1.20;;
1026;SDS011;502;48.746;9.214;2023-04-24T10:43:11;1.93;;;1.33;;
1026;SDS011;502;48.746;9.214;2023-04-24T10:45:44;3.20;;;1.53;;
1026;SDS011;502;48.746;9.214;2023-04-24T10:48:27;1.77;;;1.60;;
1026;SDS011;502;48.746;9.214;2023-04-24T10:50:53;2.00;;;1.40;;
1026;SDS011;502;48.746;9.214;2023-04-24T10:53:20;2.00;;;1.27;;
1026;SDS011;502;48.746;9.214;2023-04-24T10:55:48;7.37;;;1.60;;
1026;SDS011;502;48.746;9.214;2023-04-24T10:58:18;1.80;;;1.40;;
1026;SDS011;502;48.746;9.214;2023-04-24T11:00:55;1.63;;;1.50;;
1026;SDS011;502;48.746;9.214;2023-04-24T11:03:24;2.30;;;1.70;;
1026;SDS011;502;48.746;9.214;2023-04-24T11:05:53;3.73;;;1.20;;
1026;SDS011;502;48.746;9.214;2023-04-24T11:08:23;1.60;;;1.33;;
1026;SDS011;502;48.746;9.214;2023-04-24T11:11:00;1.60;;;1.30;;
1026;SDS011;502;48.746;9.214;2023-04-24T11:16:34;1.80;;;1.30;;
1026;SDS011;502;48.746;9.214;2023-04-24T11:19:04;1.70;;;1.20;;
1026;SDS011;502;48.746;9.214;2023-04-24T11:21:38;1.47;;;1.33;;
1026;SDS011;502;48.746;9.214;2023-04-24T11:24:23;2.03;;;1.20;;
1026;SDS011;502;48.746;9.214;2023-04-24T11:26:51;1.90;;;1.60;;
1026;SDS011;502;48.746;9.214;2023-04-24T11:29:19;1.40;;;1.30;;
1026;SDS011;502;48.746;9.214;2023-04-24T11:31:46;2.50;;;1.53;;
1026;SDS011;502;48.746;9.214;2023-04-24T11:34:15;3.33;;;1.83;;
1026;SDS011;502;48.746;9.214;2023-04-24T11:36:42;2.00;;;1.50;;
1026;SDS011;502;48.746;9.214;2023-04-24T11:39:09;1.93;;;1.47;;
1026;SDS011;502;48.746;9.214;2023-04-24T11:41:36;1.90;;;1.60;;
1026;SDS011;502;48.746;9.214;2023-04-24T11:44:03;1.70;;;1.50;;
1026;SDS011;502;48.746;9.214;2023-04-24T11:46:33;1.80;;;1.53;;
1026;SDS011;502;48.746;9.214;2023-04-24T11:48:59;1.70;;;1.33;;
1026;SDS011;502;48.746;9.214;2023-04-24T11:51:27;1.83;;;1.50;;
1026;SDS011;502;48.746;9.214;2023-04-24T11:53:54;2.33;;;1.30;;
1026;SDS011;502;48.746;9.214;2023-04-24T11:56:21;2.20;;;1.57;;
1026;SDS011;502;48.746;9.214;2023-04-24T11:58:47;2.70;;;1.80;;
1026;SDS011;502;48.746;9.214;2023-04-24T12:01:14;1.67;;;1.40;;
1026;SDS011;502;48.746;9.214;2023-04-24T12:03:42;2.37;;;1.53;;
1026;SDS011;502;48.746;9.214;2023-04-24T12:06:13;3.60;;;1.50;;
1026;SDS011;502;48.746;9.214;2023-04-24T12:08:40;2.20;;;1.80;;
1026;SDS011;502;48.746;9.214;2023-04-24T12:11:07;1.97;;;1.77;;
1026;SDS011;502;48.746;9.214;2023-04-24T12:13:33;1.57;;;1.47;;
1026;SDS011;502;48.746;9.214;2023-04-24T12:16:01;1.90;;;1.63;;
1026;SDS011;502;48.746;9.214;2023-04-24T12:18:29;2.40;;;1.50;;
1026;SDS011;502;48.746;9.214;2023-04-24T12:21:01;3.50;;;1.90;;
1026;SDS011;502;48.746;9.214;2023-04-24T12:23:42;2.30;;;1.80;;
1026;SDS011;502;48.746;9.214;2023-04-24T12:26:09;1.87;;;1.53;;
1026;SDS011;502;48.746;9.214;2023-04-24T12:28:36;2.20;;;2.00;;
1026;SDS011;502;48.746;9.214;2023-04-24T12:31:03;2.50;;;2.00;;
1026;SDS011;502;48.746;9.214;2023-04-24T12:33:32;2.33;;;1.83;;
1026;SDS011;502;48.746;9.214;2023-04-24T12:36:00;2.73;;;1.73;;
1026;SDS011;502;48.746;9.214;2023-04-24T12:38:28;2.70;;;1.83;;
1026;SDS011;502;48.746;9.214;2023-04-24T12:41:01;2.03;;;1.83;;
1026;SDS011;502;48.746;9.214;2023-04-24T12:43:29;2.20;;;1.83;;
1026;SDS011;502;48.746;9.214;2023-04-24T12:45:56;2.20;;;2.00;;
1026;SDS011;502;48.746;9.214;2023-04-24T12:48:24;2.23;;;1.70;;
1026;SDS011;502;48.746;9.214;2023-04-24T12:50:50;1.90;;;1.53;;
1026;SDS011;502;48.746;9.214;2023-04-24T12:53:18;2.80;;;1.73;;
1026;SDS011;502;48.746;9.214;2023-04-24T12:55:45;3.60;;;1.87;;
1026;SDS011;502;48.746;9.214;2023-04-24T12:58:17;1.90;;;1.60;;
1026;SDS011;502;48.746;9.214;2023-04-24T13:00:44;1.73;;;1.53;;
1026;SDS011;502;48.746;9.214;2023-04-24T13:03:11;2.00;;;1.40;;
1026;SDS011;502;48.746;9.214;2023-04-24T13:05:37;1.83;;;1.63;;
1026;SDS011;502;48.746;9.214;2023-04-24T13:08:07;1.97;;;1.47;;
1026;SDS011;502;48.746;9.214;2023-04-24T13:10:35;2.10;;;1.60;;
1026;SDS011;502;48.746;9.214;2023-04-24T13:13:02;1.93;;;1.30;;
1026;SDS011;502;48.746;9.214;2023-04-24T13:15:29;1.80;;;1.50;;
1026;SDS011;502;48.746;9.214;2023-04-24T13:17:56;2.00;;;1.60;;
1026;SDS011;502;48.746;9.214;2023-04-24T13:20:22;1.83;;;1.63;;
1026;SDS011;502;48.746;9.214;2023-04-24T13:22:49;2.20;;;1.50;;
1026;SDS011;502;48.746;9.214;2023-04-24T13:25:15;2.77;;;1.83;;
1026;SDS011;502;48.746;9.214;2023-04-24T13:27:44;2.07;;;1.50;;
1026;SDS011;502;48.746;9.214;2023-04-24T13:30:11;5.20;;;1.87;;
1026;SDS011;502;48.746;9.214;2023-04-24T13:32:38;2.10;;;1.67;;
1026;SDS011;502;48.746;9.214;2023-04-24T13:35:05;2.40;;;1.80;;
1026;SDS011;502;48.746;9.214;2023-04-24T13:37:31;1.97;;;1.77;;
1026;SDS011;502;48.746;9.214;2023-04-24T13:39:58;2.97;;;1.70;;
1026;SDS011;502;48.746;9.214;2023-04-24T13:42:25;2.00;;;1.80;;
1026;SDS011;502;48.746;9.214;2023-04-24T13:44:53;2.57;;;1.80;;
1026;SDS011;502;48.746;9.214;2023-04-24T13:47:20;2.17;;;1.80;;
1026;SDS011;502;48.746;9.214;2023-04-24T13:49:46;3.10;;;1.93;;
1026;SDS011;502;48.746;9.214;2023-04-24T13:52:13;2.37;;;2.17;;
1026;SDS011;502;48.746;9.214;2023-04-24T13:54:40;2.00;;;1.80;;
1026;SDS011;502;48.746;9.214;2023-04-24T13:57:07;2.70;;;2.03;;
1026;SDS011;502;48.746;9.214;2023-04-24T13:59:34;2.10;;;1.80;;
1026;SDS011;502;48.746;9.214;2023-04-24T14:02:02;1.67;;;1.37;;
1026;SDS011;502;48.746;9.214;2023-04-24T14:04:28;2.00;;;1.80;;
1026;SDS011;502;48.746;9.214;2023-04-24T14:06:55;2.37;;;1.50;;
1026;SDS011;502;48.746;9.214;2023-04-24T14:09:22;2.20;;;1.43;;
1026;SDS011;502;48.746;9.214;2023-04-24T14:11:48;2.10;;;1.90;;
1026;SDS011;502;48.746;9.214;2023-04-24T14:14:15;2.40;;;2.00;;
1026;SDS011;502;48.746;9.214;2023-04-24T14:16:42;2.50;;;1.87;;
1026;SDS011;502;48.746;9.214;2023-04-24T14:19:10;3.50;;;1.90;;
1026;SDS011;502;48.746;9.214;2023-04-24T14:21:40;2.00;;;1.67;;
1026;SDS011;502;48.746;9.214;2023-04-24T14:24:06;2.73;;;2.43;;
1026;SDS011;502;48.746;9.214;2023-04-24T14:26:33;2.40;;;1.80;;
1026;SDS011;502;48.746;9.214;2023-04-24T14:28:59;2.13;;;1.90;;
1026;SDS011;502;48.746;9.214;2023-04-24T14:31:26;2.70;;;1.90;;
1026;SDS011;502;48.746;9.214;2023-04-24T14:33:53;2.40;;;2.20;;
1026;SDS011;502;48.746;9.214;2023-04-24T14:36:21;2.27;;;1.80;;
1026;SDS011;502;48.746;9.214;2023-04-24T14:38:48;2.40;;;1.93;;
1026;SDS011;502;48.746;9.214;2023-04-24T14:41:15;2.73;;;2.33;;
1026;SDS011;502;48.746;9.214;2023-04-24T14:43:41;2.13;;;1.93;;
1026;SDS011;502;48.746;9.214;2023-04-24T14:46:08;2.53;;;1.77;;
1026;SDS011;502;48.746;9.214;2023-04-24T14:48:34;2.50;;;2.17;;
1026;SDS011;502;48.746;9.214;2023-04-24T14:51:01;2.50;;;2.10;;
1026;SDS011;502;48.746;9.214;2023-04-24T14:53:29;2.83;;;2.43;;
1026;SDS011;502;48.746;9.214;2023-04-24T14:55:56;2.43;;;2.10;;
1026;SDS011;502;48.746;9.214;2023-04-24T14:58:22;3.17;;;2.80;;
1026;SDS011;502;48.746;9.214;2023-04-24T15:00:49;2.87;;;2.50;;
1026;SDS011;502;48.746;9.214;2023-04-24T15:03:17;2.80;;;2.50;;
1026;SDS011;502;48.746;9.214;2023-04-24T15:05:45;2.83;;;2.20;;
1026;SDS011;502;48.746;9.214;2023-04-24T15:08:11;2.77;;;2.40;;
1026;SDS011;502;48.746;9.214;2023-04-24T15:10:39;2.60;;;2.40;;
1026;SDS011;502;48.746;9.214;2023-04-24T15:13:06;3.10;;;2.30;;
1026;SDS011;502;48.746;9.214;2023-04-24T15:15:33;2.80;;;2.10;;
1026;SDS011;502;48.746;9.214;2023-04-24T15:17:59;3.07;;;2.40;;
1026;SDS011;502;48.746;9.214;2023-04-24T15:20:26;3.70;;;2.57;;
1026;SDS011;502;48.746;9.214;2023-04-24T15:22:52;3.60;;;3.30;;
1026;SDS011;502;48.746;9.214;2023-04-24T15:25:19;4.87;;;2.50;;
1026;SDS011;502;48.746;9.214;2023-04-24T15:27:47;2.80;;;2.30;;
1026;SDS011;502;48.746;9.214;2023-04-24T15:30:14;2.60;;;2.13;;
1026;SDS011;502;48.746;9.214;2023-04-24T15:35:50;2.30;;;2.10;;
1026;SDS011;502;48.746;9.214;2023-04-24T15:38:17;3.10;;;2.40;;
1026;SDS011;502;48.746;9.214;2023-04-24T15:40:44;2.70;;;2.20;;
1026;SDS011;502;48.746;9.214;2023-04-24T15:43:12;2.30;;;2.03;;
1026;SDS011;502;48.746;9.214;2023-04-24T15:45:38;3.03;;;2.10;;
1026;SDS011;502;48.746;9.214;2023-04-24T15:48:05;4.33;;;2.20;;